createdAt,value
2019-03-22T00:02:37.257Z,9.75
2019-03-22T00:06:40.799Z,9.74
2019-03-22T00:10:46.870Z,9.74
2019-03-22T00:14:50.672Z,9.73
2019-03-22T00:18:54.238Z,9.72
2019-03-22T00:22:58.710Z,9.72
2019-03-22T00:27:02.628Z,9.70
2019-03-22T00:31:06.348Z,9.66
2019-03-22T00:35:11.104Z,9.67
2019-03-22T00:39:14.814Z,9.66
2019-03-22T00:43:18.422Z,9.72
2019-03-22T00:47:23.057Z,9.61
2019-03-22T00:51:26.724Z,9.62
2019-03-22T00:55:30.386Z,9.60
2019-03-22T00:59:34.006Z,9.55
2019-03-22T01:03:37.560Z,9.63
2019-03-22T01:07:41.228Z,9.55
2019-03-22T01:11:44.842Z,9.61
2019-03-22T01:15:48.459Z,9.81
2019-03-22T01:19:52.071Z,9.80
2019-03-22T01:23:55.863Z,9.75
2019-03-22T01:27:59.505Z,9.65
2019-03-22T01:32:03.043Z,9.51
2019-03-22T01:36:06.732Z,9.53
2019-03-22T01:40:12.092Z,9.53
2019-03-22T01:44:15.702Z,9.49
2019-03-22T01:48:19.452Z,9.56
2019-03-22T01:52:23.136Z,9.62
2019-03-22T01:56:26.770Z,9.50
2019-03-22T02:00:30.767Z,9.44
2019-03-22T02:04:34.358Z,9.41
2019-03-22T02:08:38.203Z,9.39
2019-03-22T02:12:41.923Z,9.39
2019-03-22T02:16:45.636Z,9.35
2019-03-22T02:20:49.177Z,9.36
2019-03-22T02:24:52.892Z,9.48
2019-03-22T02:28:56.481Z,9.38
2019-03-22T02:33:00.091Z,9.37
2019-03-22T02:37:04.932Z,9.35
2019-03-22T02:41:08.587Z,9.33
2019-03-22T02:45:14.327Z,9.27
2019-03-22T02:49:17.924Z,9.30
2019-03-22T02:53:21.650Z,9.23
2019-03-22T02:57:25.471Z,9.19
2019-03-22T03:01:29.281Z,9.19
2019-03-22T03:05:33.002Z,9.17
2019-03-22T03:09:36.610Z,9.15
2019-03-22T03:13:40.511Z,9.23
2019-03-22T03:17:44.066Z,9.20
2019-03-22T03:21:47.770Z,9.16
2019-03-22T03:25:51.372Z,9.08
2019-03-22T03:29:55.343Z,9.07
2019-03-22T03:33:58.918Z,9.09
2019-03-22T03:38:02.629Z,9.19
2019-03-22T03:42:06.446Z,9.10
2019-03-22T03:46:10.164Z,9.07
2019-03-22T03:50:13.880Z,9.06
2019-03-22T03:54:17.430Z,9.08
2019-03-22T03:58:21.107Z,9.08
2019-03-22T04:02:25.172Z,9.03
2019-03-22T04:06:28.740Z,9.02
2019-03-22T04:10:32.738Z,8.96
2019-03-22T04:14:36.380Z,9.12
2019-03-22T04:18:40.005Z,9.05
2019-03-22T04:22:43.766Z,9.01
2019-03-22T04:26:47.396Z,9.00
2019-03-22T04:30:51.038Z,9.00
2019-03-22T04:34:54.652Z,8.96
2019-03-22T04:38:58.263Z,9.04
2019-03-22T04:43:01.885Z,9.04
2019-03-22T04:47:07.673Z,9.00
2019-03-22T04:51:12.177Z,8.99
2019-03-22T04:55:16.683Z,9.03
2019-03-22T04:59:21.423Z,9.01
2019-03-22T05:03:29.494Z,8.89
2019-03-22T05:07:33.581Z,8.93
2019-03-22T05:11:38.310Z,8.90
2019-03-22T05:15:43.182Z,9.08
2019-03-22T05:19:49.874Z,8.92
2019-03-22T05:23:56.738Z,8.92
2019-03-22T05:28:02.614Z,8.97
2019-03-22T05:32:08.038Z,8.93
2019-03-22T05:36:11.588Z,8.97
2019-03-22T05:40:16.231Z,9.10
2019-03-22T05:44:19.841Z,9.05
2019-03-22T05:48:24.073Z,9.07
2019-03-22T05:52:27.785Z,9.07
2019-03-22T05:56:31.623Z,9.13
2019-03-22T06:00:35.527Z,9.20
2019-03-22T06:04:39.151Z,9.23
2019-03-22T06:08:42.861Z,9.34
2019-03-22T06:12:46.469Z,9.47
2019-03-22T06:16:50.190Z,9.53
2019-03-22T06:20:53.801Z,9.50
2019-03-22T06:24:57.588Z,9.41
2019-03-22T06:29:01.243Z,9.33
2019-03-22T06:33:04.965Z,9.36
2019-03-22T06:37:08.676Z,9.40
2019-03-22T06:41:12.314Z,9.37
2019-03-22T06:45:15.897Z,9.30
2019-03-22T06:49:19.614Z,9.24
2019-03-22T06:53:23.227Z,9.38
2019-03-22T06:57:26.838Z,9.50
2019-03-22T07:01:30.672Z,9.59
2019-03-22T07:05:35.300Z,9.49
2019-03-22T07:09:38.857Z,9.71
2019-03-22T07:13:42.624Z,9.87
2019-03-22T07:17:46.239Z,9.78
2019-03-22T07:21:49.854Z,9.93
2019-03-22T07:25:53.469Z,9.93
2019-03-22T07:29:57.393Z,10.02
2019-03-22T07:34:01.005Z,10.00
2019-03-22T07:38:04.703Z,9.87
2019-03-22T07:42:08.333Z,10.08
2019-03-22T07:46:11.948Z,10.01
2019-03-22T07:50:15.663Z,9.98
2019-03-22T07:54:19.490Z,9.97
2019-03-22T07:58:23.537Z,10.00
2019-03-22T08:02:27.228Z,10.08
2019-03-22T08:06:30.946Z,10.10
2019-03-22T08:10:34.666Z,10.05
2019-03-22T08:14:38.422Z,10.05
2019-03-22T08:18:42.298Z,10.03
2019-03-22T08:22:46.011Z,10.14
2019-03-22T08:26:49.623Z,10.45
2019-03-22T08:30:53.243Z,10.54
2019-03-22T08:34:59.627Z,10.58
2019-03-22T08:39:03.648Z,10.63
2019-03-22T08:43:07.258Z,10.81
2019-03-22T08:47:10.970Z,10.68
2019-03-22T08:51:14.587Z,10.78
2019-03-22T08:55:18.428Z,10.95
2019-03-22T08:59:22.117Z,11.00
2019-03-22T09:03:25.879Z,11.09
2019-03-22T09:07:29.490Z,11.29
2019-03-22T09:11:33.068Z,11.24
2019-03-22T09:15:41.039Z,11.34
2019-03-22T09:19:46.175Z,11.27
2019-03-22T09:23:51.964Z,11.68
2019-03-22T09:27:59.210Z,11.76
2019-03-22T09:32:02.907Z,12.07
2019-03-22T09:36:06.546Z,12.31
2019-03-22T09:40:10.530Z,12.00
2019-03-22T09:44:18.719Z,12.06
2019-03-22T09:48:23.366Z,12.30
2019-03-22T09:52:33.788Z,11.88
2019-03-22T09:56:47.208Z,12.03
2019-03-22T10:00:50.809Z,12.09
2019-03-22T10:04:54.459Z,12.25
2019-03-22T10:08:58.084Z,12.09
2019-03-22T10:13:01.824Z,12.26
2019-03-22T10:17:05.500Z,13.22
2019-03-22T10:21:21.524Z,13.47
2019-03-22T10:25:14.866Z,14.05
2019-03-22T10:29:18.443Z,14.99
2019-03-22T10:33:23.305Z,14.05
2019-03-22T10:37:27.101Z,14.23
2019-03-22T10:41:31.811Z,16.04
2019-03-22T10:45:35.564Z,15.93
2019-03-22T10:49:41.812Z,15.07
2019-03-22T10:53:44.540Z,15.33
2019-03-22T10:57:48.213Z,15.97
2019-03-22T11:02:02.598Z,14.76
2019-03-22T11:05:57.165Z,14.23
2019-03-22T11:10:00.828Z,14.80
2019-03-22T11:14:04.596Z,14.46
2019-03-22T11:18:08.318Z,13.69
2019-03-22T11:22:11.935Z,13.99
2019-03-22T11:26:15.543Z,15.25
2019-03-22T11:30:19.581Z,14.88
2019-03-22T11:34:23.284Z,15.13
2019-03-22T11:38:26.999Z,15.49
2019-03-22T11:42:30.615Z,15.03
2019-03-22T11:46:34.433Z,14.81
2019-03-22T11:50:38.007Z,14.78
2019-03-22T11:54:41.664Z,14.92
2019-03-22T11:58:45.377Z,14.48
2019-03-22T12:02:49.196Z,15.01
2019-03-22T12:06:52.812Z,14.91
2019-03-22T12:10:56.424Z,14.84
2019-03-22T12:15:00.075Z,14.77
2019-03-22T12:19:03.654Z,15.24
2019-03-22T12:23:07.578Z,15.15
2019-03-22T12:27:11.192Z,15.21
2019-03-22T12:31:14.847Z,15.48
2019-03-22T12:35:18.930Z,15.37
2019-03-22T12:39:22.647Z,15.24
2019-03-22T12:43:26.258Z,15.35
2019-03-22T12:47:30.519Z,15.39
2019-03-22T12:51:42.826Z,15.47
2019-03-22T12:55:54.112Z,15.55
2019-03-22T13:00:02.763Z,15.62
2019-03-22T13:04:07.696Z,15.58
2019-03-22T13:08:11.414Z,15.93
2019-03-22T13:12:16.139Z,15.92
2019-03-22T13:16:19.711Z,15.99
2019-03-22T13:20:23.572Z,15.87
2019-03-22T13:24:27.186Z,15.82
2019-03-22T13:28:30.839Z,15.91
2019-03-22T13:32:34.627Z,16.01
2019-03-22T13:36:38.237Z,16.02
2019-03-22T13:40:41.855Z,16.00
2019-03-22T13:44:45.461Z,16.25
2019-03-22T13:48:49.081Z,16.20
2019-03-22T13:52:52.689Z,16.33
2019-03-22T13:56:56.305Z,16.16
2019-03-22T14:01:00.230Z,16.18
2019-03-22T14:05:05.171Z,16.26
2019-03-22T14:09:09.910Z,16.23
2019-03-22T14:13:13.490Z,16.18
2019-03-22T14:17:17.163Z,16.18
2019-03-22T14:21:20.855Z,16.33
2019-03-22T14:25:24.577Z,16.48
2019-03-22T14:29:28.190Z,16.41
2019-03-22T14:33:31.900Z,16.35
2019-03-22T14:37:35.619Z,16.32
2019-03-22T14:41:39.251Z,16.35
2019-03-22T14:45:42.949Z,16.37
2019-03-22T14:49:46.682Z,16.47
2019-03-22T14:53:50.280Z,16.53
2019-03-22T14:57:53.940Z,16.50
2019-03-22T15:02:17.143Z,16.37
2019-03-22T15:06:21.498Z,16.38
2019-03-22T15:10:25.232Z,16.35
2019-03-22T15:14:39.377Z,16.38
2019-03-22T15:18:50.169Z,16.20
2019-03-22T15:22:58.178Z,16.30
2019-03-22T15:27:09.367Z,16.31
2019-03-22T15:31:23.848Z,16.18
2019-03-22T15:35:45.812Z,16.10
2019-03-22T15:39:53.908Z,15.96
2019-03-22T15:43:57.570Z,15.82
2019-03-22T15:48:01.343Z,15.88
2019-03-22T15:52:05.117Z,15.83
2019-03-22T15:56:08.671Z,15.73
2019-03-22T16:00:17.483Z,15.66
2019-03-22T16:04:21.128Z,15.64
2019-03-22T16:08:24.753Z,15.60
2019-03-22T16:12:28.347Z,15.60
2019-03-22T16:16:32.063Z,15.48
2019-03-22T16:20:35.678Z,15.34
2019-03-22T16:24:39.499Z,15.19
2019-03-22T16:28:43.122Z,14.94
2019-03-22T16:32:46.831Z,14.80
2019-03-22T16:36:50.399Z,14.59
2019-03-22T16:40:54.059Z,14.46
2019-03-22T16:44:57.670Z,14.30
2019-03-22T16:49:01.284Z,14.25
2019-03-22T16:53:05.631Z,14.04
2019-03-22T16:57:09.230Z,13.83
2019-03-22T17:01:12.952Z,13.66
2019-03-22T17:05:16.667Z,13.56
2019-03-22T17:09:20.483Z,13.36
2019-03-22T17:13:24.051Z,13.19
2019-03-22T17:17:40.198Z,13.05
2019-03-22T17:21:44.330Z,12.97
2019-03-22T17:25:47.943Z,12.77
2019-03-22T17:29:52.172Z,12.69
2019-03-22T17:33:55.732Z,12.56
2019-03-22T17:37:59.506Z,12.41
2019-03-22T17:42:03.324Z,12.32
2019-03-22T17:50:17.782Z,12.06
2019-03-22T17:54:21.338Z,12.10
2019-03-22T18:12:25.212Z,11.28
2019-03-22T18:16:28.780Z,11.20
2019-03-22T18:20:32.432Z,10.99
2019-03-22T18:24:36.998Z,10.91
2019-03-22T18:28:40.769Z,11.00
2019-03-22T18:32:45.130Z,10.89
2019-03-22T18:36:48.905Z,10.86
2019-03-22T18:40:52.579Z,11.00
2019-03-22T18:44:56.498Z,10.94
2019-03-22T18:49:00.462Z,10.84
2019-03-22T18:53:03.986Z,10.82
2019-03-22T18:57:08.076Z,10.75
2019-03-22T19:01:11.892Z,10.61
2019-03-22T19:05:16.673Z,10.56
2019-03-22T19:09:20.451Z,10.52
2019-03-22T19:13:30.671Z,10.58
2019-03-22T19:17:29.479Z,10.40
2019-03-22T19:21:33.184Z,10.20
2019-03-22T19:25:37.122Z,10.34
2019-03-22T19:29:40.904Z,10.35
2019-03-22T19:33:44.592Z,10.42
2019-03-22T19:37:48.368Z,10.41
2019-03-22T19:41:52.058Z,10.44
2019-03-22T19:45:55.710Z,10.37
2019-03-22T19:49:59.366Z,10.29
2019-03-22T19:54:03.153Z,10.24
2019-03-22T19:58:07.026Z,10.33
2019-03-22T20:02:10.875Z,10.28
2019-03-22T20:06:14.781Z,10.31
2019-03-22T20:10:18.972Z,10.26
2019-03-22T20:14:23.038Z,10.25
2019-03-22T20:18:26.644Z,10.14
2019-03-22T20:22:30.127Z,10.20
2019-03-22T20:26:33.704Z,10.30
2019-03-22T20:30:37.331Z,10.32
2019-03-22T20:34:40.856Z,10.25
2019-03-22T20:38:44.391Z,10.22
2019-03-22T20:42:48.065Z,10.04
2019-03-22T20:46:51.579Z,9.90
2019-03-22T20:50:55.182Z,9.80
2019-03-22T20:54:58.859Z,9.70
2019-03-22T20:59:02.441Z,9.59
2019-03-22T21:03:06.313Z,9.54
2019-03-22T21:12:03.892Z,9.34
2019-03-22T21:16:12.400Z,9.13
2019-03-22T21:20:50.985Z,8.97
2019-03-22T21:24:54.597Z,8.95
2019-03-22T21:28:58.094Z,8.95
2019-03-22T21:33:01.602Z,9.00
2019-03-22T21:37:06.089Z,8.98
2019-03-22T21:41:09.613Z,8.92
2019-03-22T21:45:13.466Z,8.86
2019-03-22T21:49:17.014Z,8.83
2019-03-22T21:53:20.509Z,8.85
2019-03-22T21:57:24.977Z,8.82
2019-03-22T22:01:28.493Z,8.80
2019-03-22T22:05:32.017Z,8.84
2019-03-22T22:09:35.529Z,8.95
2019-03-22T22:13:39.023Z,8.92
2019-03-22T22:17:42.932Z,8.91
2019-03-22T22:21:46.447Z,8.79
2019-03-22T22:25:51.534Z,8.80
2019-03-22T22:34:58.926Z,8.79
2019-03-22T22:39:02.404Z,8.72
2019-03-22T22:43:05.936Z,8.72
2019-03-22T22:47:09.458Z,8.73
2019-03-22T22:51:12.978Z,8.76
2019-03-22T22:55:16.488Z,8.76
2019-03-22T22:59:19.982Z,8.68
2019-03-22T23:03:23.533Z,8.71
2019-03-22T23:07:27.104Z,8.71
2019-03-22T23:11:30.567Z,8.71
2019-03-22T23:15:34.090Z,8.63
2019-03-22T23:19:37.575Z,8.60
2019-03-22T23:23:41.088Z,8.50
2019-03-22T23:27:44.657Z,8.54
2019-03-22T23:31:49.268Z,8.60
2019-03-22T23:35:53.001Z,8.60
2019-03-22T23:39:56.501Z,8.59
2019-03-22T23:44:02.158Z,8.54
2019-03-22T23:48:05.686Z,8.56
2019-03-22T23:52:09.233Z,8.56
2019-03-22T23:56:13.663Z,8.53
